createdAt,value
2022-11-03T00:02:27.993Z,9.37
2022-11-03T00:04:56.756Z,9.22
2022-11-03T00:07:26.483Z,9.24
2022-11-03T00:09:56.270Z,9.24
2022-11-03T00:12:24.795Z,9.28
2022-11-03T00:14:52.887Z,9.28
2022-11-03T00:17:21.196Z,9.31
2022-11-03T00:19:51.367Z,9.36
2022-11-03T00:22:20.362Z,9.38
2022-11-03T00:24:48.974Z,9.27
2022-11-03T00:27:19.144Z,9.03
2022-11-03T00:29:48.017Z,9.05
2022-11-03T00:32:17.758Z,9.02
2022-11-03T00:34:46.276Z,8.80
2022-11-03T00:37:15.357Z,8.73
2022-11-03T00:39:45.836Z,8.68
2022-11-03T00:42:15.397Z,8.55
2022-11-03T00:44:45.563Z,8.54
2022-11-03T00:47:16.864Z,8.40
2022-11-03T00:49:48.884Z,8.30
2022-11-03T00:52:17.127Z,8.34
2022-11-03T00:54:45.672Z,8.45
2022-11-03T00:57:17.813Z,8.44
2022-11-03T00:59:47.899Z,8.41
2022-11-03T01:02:18.190Z,8.23
2022-11-03T01:05:04.302Z,8.17
2022-11-03T01:07:32.420Z,8.19
2022-11-03T01:10:00.734Z,8.13
2022-11-03T01:12:30.899Z,8.13
2022-11-03T01:15:00.939Z,8.06
2022-11-03T01:17:29.991Z,8.16
2022-11-03T01:19:58.137Z,8.17
2022-11-03T01:22:26.194Z,8.04
2022-11-03T01:24:55.942Z,7.96
2022-11-03T01:27:24.616Z,7.90
2022-11-03T01:29:55.428Z,7.86
2022-11-03T01:32:26.366Z,7.85
2022-11-03T01:34:54.698Z,7.87
2022-11-03T01:37:27.169Z,7.90
2022-11-03T01:39:56.354Z,7.93
2022-11-03T01:42:24.842Z,7.97
2022-11-03T01:44:55.286Z,7.94
2022-11-03T01:47:31.631Z,7.87
2022-11-03T01:50:04.377Z,7.93
2022-11-03T01:52:36.958Z,8.16
2022-11-03T01:55:08.944Z,8.29
2022-11-03T01:57:40.277Z,8.23
2022-11-03T02:00:10.567Z,7.99
2022-11-03T02:02:41.843Z,7.69
2022-11-03T02:05:12.134Z,7.50
2022-11-03T02:07:46.794Z,7.35
2022-11-03T02:10:15.553Z,7.34
2022-11-03T02:12:44.643Z,7.25
2022-11-03T02:15:20.228Z,7.27
2022-11-03T02:17:51.986Z,7.20
2022-11-03T02:20:23.503Z,7.20
2022-11-03T02:23:13.637Z,7.31
2022-11-03T02:25:46.044Z,7.21
2022-11-03T02:28:16.536Z,7.31
2022-11-03T02:30:51.455Z,7.35
2022-11-03T02:33:32.630Z,7.36
2022-11-03T02:36:08.190Z,7.41
2022-11-03T02:38:39.961Z,7.47
2022-11-03T02:41:10.041Z,7.42
2022-11-03T02:43:40.814Z,7.42
2022-11-03T02:46:10.211Z,7.31
2022-11-03T02:48:38.815Z,7.31
2022-11-03T02:51:08.603Z,7.27
2022-11-03T02:53:41.777Z,7.23
2022-11-03T02:56:16.820Z,7.13
2022-11-03T02:58:54.384Z,7.15
2022-11-03T03:01:30.488Z,7.20
2022-11-03T03:04:01.993Z,7.21
2022-11-03T03:06:35.585Z,7.41
2022-11-03T03:09:08.078Z,7.45
2022-11-03T03:11:44.727Z,7.41
2022-11-03T03:14:20.984Z,7.41
2022-11-03T03:16:56.995Z,7.50
2022-11-03T03:19:35.570Z,7.44
2022-11-03T03:22:13.224Z,7.38
2022-11-03T03:24:49.381Z,7.27
2022-11-03T03:27:25.038Z,7.27
2022-11-03T03:29:57.883Z,7.35
2022-11-03T03:32:29.795Z,7.47
2022-11-03T03:35:00.749Z,7.45
2022-11-03T03:37:32.914Z,7.41
2022-11-03T03:40:09.656Z,7.69
2022-11-03T03:42:41.608Z,7.76
2022-11-03T03:45:11.637Z,7.65
2022-11-03T03:47:43.014Z,7.79
2022-11-03T03:50:14.138Z,7.75
2022-11-03T03:52:42.475Z,7.59
2022-11-03T03:55:18.048Z,7.55
2022-11-03T03:57:49.188Z,7.52
2022-11-03T04:00:18.020Z,7.42
2022-11-03T04:02:47.699Z,7.42
2022-11-03T04:05:16.923Z,7.52
2022-11-03T04:07:48.083Z,7.51
2022-11-03T04:10:16.630Z,7.56
2022-11-03T04:13:03.251Z,7.63
2022-11-03T04:15:57.017Z,7.63
2022-11-03T04:18:43.115Z,7.71
2022-11-03T04:21:31.548Z,7.78
2022-11-03T04:24:01.023Z,7.86
2022-11-03T04:26:31.146Z,7.93
2022-11-03T04:29:01.205Z,7.89
2022-11-03T04:31:36.752Z,7.83
2022-11-03T04:34:10.871Z,7.86
2022-11-03T04:36:40.503Z,7.87
2022-11-03T04:39:17.574Z,8.23
2022-11-03T04:41:47.224Z,8.31
2022-11-03T04:44:17.614Z,8.26
2022-11-03T04:46:48.037Z,8.10
2022-11-03T04:49:25.893Z,8.07
2022-11-03T04:51:54.435Z,8.06
2022-11-03T04:54:25.015Z,7.93
2022-11-03T04:56:53.452Z,7.90
2022-11-03T04:59:21.815Z,7.99
2022-11-03T05:01:53.260Z,7.79
2022-11-03T05:04:21.395Z,7.59
2022-11-03T05:06:52.805Z,7.58
2022-11-03T05:09:25.982Z,7.45
2022-11-03T05:11:55.661Z,7.24
2022-11-03T05:14:27.047Z,7.17
2022-11-03T05:16:58.642Z,7.14
2022-11-03T05:19:34.438Z,7.18
2022-11-03T05:22:07.734Z,7.08
2022-11-03T05:24:38.979Z,7.07
2022-11-03T05:27:14.947Z,6.99
2022-11-03T05:29:44.131Z,6.96
2022-11-03T05:32:20.343Z,6.94
2022-11-03T05:34:50.801Z,6.99
2022-11-03T05:37:28.221Z,7.01
2022-11-03T05:40:00.303Z,6.96
2022-11-03T05:42:33.713Z,6.90
2022-11-03T05:45:15.733Z,6.89
2022-11-03T05:47:48.844Z,6.83
2022-11-03T05:50:25.277Z,6.86
2022-11-03T05:52:58.045Z,6.82
2022-11-03T05:55:28.877Z,6.85
2022-11-03T05:58:02.271Z,6.86
2022-11-03T06:00:33.670Z,6.86
2022-11-03T06:03:04.130Z,6.87
2022-11-03T06:05:36.176Z,6.90
2022-11-03T06:08:19.959Z,6.97
2022-11-03T06:10:51.135Z,7.04
2022-11-03T06:13:24.965Z,7.04
2022-11-03T06:15:59.270Z,7.08
2022-11-03T06:18:34.291Z,7.07
2022-11-03T06:21:10.668Z,7.11
2022-11-03T06:23:39.002Z,7.14
2022-11-03T06:26:18.186Z,7.15
2022-11-03T06:28:49.179Z,7.15
2022-11-03T06:31:23.406Z,7.17
2022-11-03T06:33:54.692Z,7.18
2022-11-03T06:36:25.949Z,7.21
2022-11-03T06:38:59.148Z,7.21
2022-11-03T06:41:30.643Z,7.21
2022-11-03T06:44:16.626Z,7.24
2022-11-03T06:46:45.066Z,7.28
2022-11-03T06:49:28.473Z,7.34
2022-11-03T06:51:57.222Z,7.38
2022-11-03T06:54:25.645Z,7.41
2022-11-03T06:56:53.750Z,7.44
2022-11-03T06:59:23.308Z,7.52
2022-11-03T07:01:55.188Z,7.62
2022-11-03T07:04:29.416Z,7.78
2022-11-03T07:07:02.000Z,7.94
2022-11-03T07:09:31.667Z,8.09
2022-11-03T07:12:02.921Z,8.38
2022-11-03T07:14:33.833Z,8.57
2022-11-03T07:17:04.394Z,8.72
2022-11-03T07:19:37.006Z,8.99
2022-11-03T07:22:15.985Z,9.10
2022-11-03T07:24:48.251Z,9.27
2022-11-03T07:27:22.053Z,9.37
2022-11-03T07:29:51.917Z,9.46
2022-11-03T07:32:24.272Z,9.50
2022-11-03T07:34:55.280Z,9.73
2022-11-03T07:37:28.990Z,9.78
2022-11-03T07:39:59.846Z,9.99
2022-11-03T07:42:28.972Z,10.03
2022-11-03T07:44:58.278Z,10.06
2022-11-03T07:47:29.210Z,10.23
2022-11-03T07:49:59.273Z,10.39
2022-11-03T07:52:28.783Z,10.52
2022-11-03T07:54:58.562Z,10.60
2022-11-03T07:57:30.475Z,10.65
2022-11-03T08:00:08.989Z,10.75
2022-11-03T08:02:48.286Z,10.84
2022-11-03T08:07:47.851Z,10.97
2022-11-03T08:10:16.435Z,10.97
2022-11-03T08:12:46.252Z,11.02
2022-11-03T08:15:17.250Z,10.97
2022-11-03T08:17:45.755Z,11.00
2022-11-03T08:20:14.106Z,11.08
2022-11-03T08:22:50.017Z,11.09
2022-11-03T08:25:32.066Z,11.21
2022-11-03T08:28:04.080Z,11.30
2022-11-03T08:30:32.522Z,11.33
2022-11-03T08:33:00.879Z,11.35
2022-11-03T08:35:31.575Z,11.36
2022-11-03T08:38:04.710Z,11.40
2022-11-03T08:40:33.551Z,11.46
2022-11-03T08:43:03.309Z,11.52
2022-11-03T08:45:32.599Z,11.56
2022-11-03T08:48:04.815Z,11.57
2022-11-03T08:50:33.652Z,11.57
2022-11-03T08:53:04.232Z,11.67
2022-11-03T08:55:33.007Z,11.62
2022-11-03T08:58:01.497Z,11.69
2022-11-03T09:00:30.039Z,11.62
2022-11-03T09:03:02.755Z,11.67
2022-11-03T09:05:31.256Z,11.76
2022-11-03T09:10:52.360Z,11.83
2022-11-03T09:13:21.832Z,11.91
2022-11-03T09:15:50.352Z,11.88
2022-11-03T09:18:18.993Z,11.94
2022-11-03T09:20:47.605Z,11.94
2022-11-03T09:23:18.550Z,12.01
2022-11-03T09:25:50.018Z,11.98
2022-11-03T09:28:19.037Z,11.86
2022-11-03T09:30:48.499Z,11.76
2022-11-03T09:33:17.422Z,11.76
2022-11-03T09:35:45.915Z,11.63
2022-11-03T09:38:19.082Z,11.69
2022-11-03T09:43:22.462Z,11.83
2022-11-03T09:45:51.126Z,11.77
2022-11-03T09:48:19.931Z,11.69
2022-11-03T09:50:53.419Z,11.66
2022-11-03T09:53:23.641Z,11.71
2022-11-03T09:55:52.442Z,11.60
2022-11-03T09:58:20.855Z,11.67
2022-11-03T10:00:49.403Z,11.70
2022-11-03T10:03:20.401Z,11.69
2022-11-03T10:05:49.552Z,11.73
2022-11-03T10:08:29.371Z,11.81
2022-11-03T10:10:58.681Z,11.90
2022-11-03T10:13:31.525Z,11.84
2022-11-03T10:16:01.674Z,11.84
2022-11-03T10:18:30.524Z,11.83
2022-11-03T10:21:04.516Z,11.83
2022-11-03T10:23:35.159Z,11.86
2022-11-03T10:26:11.487Z,11.83
2022-11-03T10:28:42.187Z,11.81
2022-11-03T10:31:21.416Z,11.78
2022-11-03T10:33:54.108Z,11.81
2022-11-03T10:36:25.499Z,11.83
2022-11-03T10:38:56.153Z,11.86
2022-11-03T10:41:26.197Z,11.87
2022-11-03T10:44:03.003Z,11.83
2022-11-03T10:49:21.388Z,11.94
2022-11-03T10:51:51.532Z,11.88
2022-11-03T10:54:23.733Z,12.02
2022-11-03T10:56:52.725Z,12.05
2022-11-03T10:59:22.922Z,12.01
2022-11-03T11:01:52.076Z,12.11
2022-11-03T11:04:22.053Z,12.08
2022-11-03T11:06:51.485Z,12.14
2022-11-03T11:09:25.790Z,12.13
2022-11-03T11:12:02.454Z,12.21
2022-11-03T11:14:52.378Z,12.18
2022-11-03T11:17:47.186Z,12.25
2022-11-03T11:20:33.979Z,12.28
2022-11-03T11:23:52.705Z,12.29
2022-11-03T11:26:44.319Z,12.34
2022-11-03T11:29:42.989Z,12.29
2022-11-03T11:32:56.062Z,12.34
2022-11-03T11:36:06.658Z,12.38
2022-11-03T11:38:58.443Z,12.36
2022-11-03T11:42:03.264Z,12.34
2022-11-03T11:45:06.559Z,12.26
2022-11-03T11:47:59.092Z,12.36
2022-11-03T11:50:32.060Z,12.25
2022-11-03T11:53:12.254Z,12.38
2022-11-03T11:55:45.402Z,12.34
2022-11-03T11:58:26.806Z,12.38
2022-11-03T12:01:01.444Z,12.38
2022-11-03T12:03:40.251Z,12.29
2022-11-03T12:06:10.056Z,12.29
2022-11-03T12:08:40.886Z,12.36
2022-11-03T12:11:11.495Z,12.36
2022-11-03T12:13:51.312Z,12.42
2022-11-03T12:16:32.664Z,12.46
2022-11-03T12:19:34.206Z,12.41
2022-11-03T12:22:03.402Z,12.31
2022-11-03T12:24:40.919Z,12.29
2022-11-03T12:27:36.703Z,12.21
2022-11-03T12:30:08.706Z,12.24
2022-11-03T12:32:38.351Z,12.22
2022-11-03T12:35:09.159Z,12.17
2022-11-03T12:37:38.295Z,12.18
2022-11-03T12:40:07.960Z,12.22
2022-11-03T12:42:36.328Z,12.15
2022-11-03T12:45:05.052Z,12.15
2022-11-03T12:47:33.686Z,12.07
2022-11-03T12:50:03.067Z,12.01
2022-11-03T12:52:33.828Z,11.99
2022-11-03T12:55:02.078Z,11.98
2022-11-03T12:57:31.045Z,11.95
2022-11-03T12:59:59.187Z,11.99
2022-11-03T13:02:28.021Z,12.01
2022-11-03T13:04:56.428Z,12.02
2022-11-03T13:07:33.471Z,12.10
2022-11-03T13:10:03.103Z,12.04
2022-11-03T13:12:35.596Z,12.01
2022-11-03T13:15:07.531Z,12.02
2022-11-03T13:17:52.402Z,11.99
2022-11-03T13:20:24.782Z,11.86
2022-11-03T13:22:54.204Z,11.81
2022-11-03T13:25:24.937Z,11.81
2022-11-03T13:27:54.809Z,11.84
2022-11-03T13:30:23.340Z,11.76
2022-11-03T13:32:52.307Z,11.69
2022-11-03T13:35:21.074Z,11.69
2022-11-03T13:37:49.849Z,11.81
2022-11-03T13:40:55.446Z,11.77
2022-11-03T13:43:13.856Z,11.70
2022-11-03T13:45:44.996Z,11.67
2022-11-03T13:51:01.892Z,11.71
2022-11-03T13:56:22.275Z,11.65
2022-11-03T14:01:40.745Z,11.71
2022-11-03T14:06:58.830Z,11.65
2022-11-03T14:09:27.679Z,11.63
2022-11-03T14:12:15.259Z,11.66
2022-11-03T14:14:44.098Z,11.60
2022-11-03T14:17:13.359Z,11.60
2022-11-03T14:19:46.148Z,11.57
2022-11-03T14:22:19.330Z,11.49
2022-11-03T14:24:47.738Z,11.49
2022-11-03T14:27:18.467Z,11.39
2022-11-03T14:29:51.631Z,11.33
2022-11-03T14:32:21.272Z,11.28
2022-11-03T14:34:49.655Z,11.26
2022-11-03T14:37:18.121Z,11.16
2022-11-03T14:39:47.889Z,11.14
2022-11-03T14:42:17.170Z,11.01
2022-11-03T14:44:54.321Z,10.85
2022-11-03T14:47:30.323Z,10.81
2022-11-03T14:49:58.650Z,10.73
2022-11-03T14:52:27.264Z,10.64
2022-11-03T14:54:55.764Z,10.54
2022-11-03T14:57:25.764Z,10.49
2022-11-03T14:59:54.111Z,10.39
2022-11-03T15:02:22.351Z,10.34
2022-11-03T15:04:51.177Z,10.32
2022-11-03T15:07:20.715Z,10.23
2022-11-03T15:09:48.906Z,10.15
2022-11-03T15:12:18.545Z,10.19
2022-11-03T15:14:48.679Z,10.20
2022-11-03T15:17:17.110Z,10.06
2022-11-03T15:19:45.584Z,10.05
2022-11-03T15:22:14.416Z,10.06
2022-11-03T15:27:31.381Z,9.96
2022-11-03T15:30:02.565Z,9.94
2022-11-03T15:32:36.189Z,9.92
2022-11-03T15:35:05.232Z,9.78
2022-11-03T15:37:33.836Z,9.75
2022-11-03T15:40:02.540Z,9.74
2022-11-03T15:42:31.803Z,9.70
2022-11-03T15:45:00.795Z,9.57
2022-11-03T15:47:30.806Z,9.55
2022-11-03T15:49:59.969Z,9.58
2022-11-03T15:52:29.571Z,9.61
2022-11-03T15:54:58.224Z,9.59
2022-11-03T15:57:27.852Z,9.62
2022-11-03T15:59:57.935Z,9.65
2022-11-03T16:02:40.794Z,9.64
2022-11-03T16:05:12.156Z,9.65
2022-11-03T16:07:41.672Z,9.67
2022-11-03T16:10:10.943Z,9.71
2022-11-03T16:12:39.481Z,9.70
2022-11-03T16:15:08.958Z,9.73
2022-11-03T16:17:41.379Z,9.75
2022-11-03T16:20:14.604Z,9.81
2022-11-03T16:22:43.095Z,9.81
2022-11-03T16:25:12.889Z,9.81
2022-11-03T16:27:42.611Z,9.84
2022-11-03T16:30:12.665Z,9.85
2022-11-03T16:32:41.052Z,9.92
2022-11-03T16:35:10.068Z,9.96
2022-11-03T16:37:40.814Z,9.98
2022-11-03T16:40:16.217Z,9.96
2022-11-03T16:42:48.645Z,9.95
2022-11-03T16:45:20.123Z,9.98
2022-11-03T16:47:49.798Z,9.99
2022-11-03T16:50:18.991Z,10.05
2022-11-03T16:52:50.336Z,10.06
2022-11-03T16:55:20.640Z,10.16
2022-11-03T16:57:49.504Z,10.20
2022-11-03T17:00:19.425Z,10.17
2022-11-03T17:02:49.234Z,10.15
2022-11-03T17:05:20.383Z,10.20
2022-11-03T17:07:54.076Z,10.25
2022-11-03T17:10:24.900Z,10.29
2022-11-03T17:12:53.654Z,10.33
2022-11-03T17:15:23.169Z,10.39
2022-11-03T17:17:52.829Z,10.34
2022-11-03T17:20:21.598Z,10.40
2022-11-03T17:22:55.133Z,10.40
2022-11-03T17:25:24.539Z,10.43
2022-11-03T17:27:56.551Z,10.44
2022-11-03T17:30:27.035Z,10.40
2022-11-03T17:32:59.366Z,10.42
2022-11-03T17:35:39.220Z,10.46
2022-11-03T17:38:14.026Z,10.43
2022-11-03T17:40:44.314Z,10.40
2022-11-03T17:43:22.835Z,10.37
2022-11-03T17:45:52.194Z,10.33
2022-11-03T17:48:22.659Z,10.36
2022-11-03T17:50:53.655Z,10.34
2022-11-03T17:53:26.276Z,10.34
2022-11-03T17:56:27.756Z,10.33
2022-11-03T17:58:47.383Z,10.22
2022-11-03T18:01:22.624Z,10.22
2022-11-03T18:03:52.082Z,10.17
2022-11-03T18:06:22.200Z,10.15
2022-11-03T18:08:52.996Z,10.17
2022-11-03T18:11:43.988Z,10.19
2022-11-03T18:14:13.173Z,10.23
2022-11-03T18:16:41.958Z,10.20
2022-11-03T18:19:13.509Z,10.19
2022-11-03T18:21:43.974Z,10.22
2022-11-03T18:24:18.333Z,10.30
2022-11-03T18:26:47.197Z,10.33
2022-11-03T18:29:16.334Z,10.36
2022-11-03T18:31:49.845Z,10.33
2022-11-03T18:34:22.093Z,10.34
2022-11-03T18:36:52.981Z,10.32
2022-11-03T18:39:26.518Z,10.29
2022-11-03T18:41:56.180Z,10.30
2022-11-03T18:44:28.305Z,10.30
2022-11-03T18:46:57.961Z,10.26
2022-11-03T18:49:27.689Z,10.26
2022-11-03T18:52:02.389Z,10.29
2022-11-03T18:54:35.273Z,10.34
2022-11-03T18:57:04.600Z,10.36
2022-11-03T18:59:37.216Z,10.37
2022-11-03T19:02:15.929Z,10.36
2022-11-03T19:04:44.609Z,10.37
2022-11-03T19:07:16.330Z,10.43
2022-11-03T19:09:47.589Z,10.46
2022-11-03T19:12:16.905Z,10.49
2022-11-03T19:14:46.571Z,10.49
2022-11-03T19:17:25.168Z,10.52
2022-11-03T19:19:55.362Z,10.54
2022-11-03T19:22:24.963Z,10.56
2022-11-03T19:24:55.126Z,10.53
2022-11-03T19:27:27.664Z,10.50
2022-11-03T19:29:58.798Z,10.50
2022-11-03T19:32:31.210Z,10.56
2022-11-03T19:35:02.477Z,10.57
2022-11-03T19:37:35.794Z,10.59
2022-11-03T19:40:09.252Z,10.61
2022-11-03T19:42:37.433Z,10.60
2022-11-03T19:45:10.920Z,10.56
2022-11-03T19:47:57.639Z,10.56
2022-11-03T19:50:35.213Z,10.60
2022-11-03T19:53:08.070Z,10.63
2022-11-03T19:55:41.566Z,10.59
2022-11-03T19:58:15.573Z,10.60
2022-11-03T20:00:45.786Z,10.61
2022-11-03T20:03:15.591Z,10.60
2022-11-03T20:05:49.212Z,10.60
2022-11-03T20:08:21.141Z,10.64
2022-11-03T20:10:51.456Z,10.60
2022-11-03T20:13:21.754Z,10.65
2022-11-03T20:15:53.562Z,10.65
2022-11-03T20:18:24.518Z,10.71
2022-11-03T20:20:53.406Z,10.67
2022-11-03T20:23:26.900Z,10.73
2022-11-03T20:25:57.630Z,10.71
2022-11-03T20:28:28.789Z,10.70
2022-11-03T20:31:01.382Z,10.71
2022-11-03T20:33:32.717Z,10.68
2022-11-03T20:36:02.574Z,10.67
2022-11-03T20:38:33.288Z,10.60
2022-11-03T20:41:11.625Z,10.59
2022-11-03T20:43:42.395Z,10.59
2022-11-03T20:46:22.851Z,10.59
2022-11-03T20:48:52.412Z,10.54
2022-11-03T20:51:22.861Z,10.53
2022-11-03T20:53:52.167Z,10.49
2022-11-03T20:56:24.699Z,10.46
2022-11-03T20:58:53.098Z,10.47
2022-11-03T21:01:26.178Z,10.52
2022-11-03T21:04:00.280Z,10.46
2022-11-03T21:06:31.154Z,10.49
2022-11-03T21:09:00.337Z,10.50
2022-11-03T21:11:35.243Z,10.47
2022-11-03T21:14:13.617Z,10.49
2022-11-03T21:17:00.082Z,10.52
2022-11-03T21:19:48.100Z,10.54
2022-11-03T21:22:46.231Z,10.47
2022-11-03T21:25:11.766Z,10.56
2022-11-03T21:27:42.313Z,10.64
2022-11-03T21:30:13.392Z,10.61
2022-11-03T21:32:42.078Z,10.63
2022-11-03T21:35:14.878Z,10.68
2022-11-03T21:37:43.232Z,10.64
2022-11-03T21:40:14.799Z,10.60
2022-11-03T21:43:02.347Z,10.65
2022-11-03T21:45:30.785Z,10.64
2022-11-03T21:48:16.733Z,10.64
2022-11-03T21:50:46.443Z,10.61
2022-11-03T21:53:14.923Z,10.60
2022-11-03T21:55:43.380Z,10.64
2022-11-03T21:58:14.119Z,10.64
2022-11-03T22:00:43.318Z,10.64
2022-11-03T22:03:11.913Z,10.60
2022-11-03T22:05:41.005Z,10.63
2022-11-03T22:08:09.556Z,10.67
2022-11-03T22:10:41.570Z,10.64
2022-11-03T22:13:10.915Z,10.67
2022-11-03T22:15:58.129Z,10.60
2022-11-03T22:18:26.721Z,10.61
2022-11-03T22:21:12.673Z,10.57
2022-11-03T22:23:58.109Z,10.59
2022-11-03T22:26:44.263Z,10.54
2022-11-03T22:29:46.701Z,10.52
2022-11-03T22:32:16.336Z,10.49
2022-11-03T22:35:03.413Z,10.46
2022-11-03T22:40:16.580Z,10.37
2022-11-03T22:43:02.613Z,10.29
2022-11-03T22:45:48.115Z,10.23
2022-11-03T22:48:21.617Z,10.13
2022-11-03T22:50:57.204Z,10.12
2022-11-03T22:53:45.162Z,10.08
2022-11-03T22:56:13.739Z,10.05
2022-11-03T22:58:41.939Z,10.02
2022-11-03T23:01:11.565Z,10.01
2022-11-03T23:03:42.840Z,9.94
2022-11-03T23:06:15.785Z,9.91
2022-11-03T23:08:45.255Z,9.92
2022-11-03T23:11:16.229Z,9.95
2022-11-03T23:13:45.432Z,9.96
2022-11-03T23:16:15.647Z,9.96
2022-11-03T23:19:03.729Z,9.98
2022-11-03T23:21:33.659Z,10.05
2022-11-03T23:24:20.131Z,10.08
2022-11-03T23:26:49.105Z,10.08
2022-11-03T23:29:18.251Z,10.03
2022-11-03T23:31:47.632Z,10.10
2022-11-03T23:34:17.651Z,10.10
2022-11-03T23:36:46.449Z,10.15
2022-11-03T23:39:16.487Z,10.13
2022-11-03T23:41:45.312Z,10.15
2022-11-03T23:44:14.294Z,10.12
2022-11-03T23:47:00.259Z,10.16
2022-11-03T23:49:31.520Z,10.13
2022-11-03T23:52:00.151Z,10.17
2022-11-03T23:54:28.334Z,10.23
2022-11-03T23:57:14.404Z,10.20
2022-11-03T23:59:42.666Z,10.20
